createdAt,value
2023-04-16T00:01:12.753Z,6.50
2023-04-16T00:03:39.921Z,6.40
2023-04-16T00:06:07.416Z,6.40
2023-04-16T00:08:35.960Z,6.40
2023-04-16T00:11:03.012Z,6.40
2023-04-16T00:13:30.212Z,6.40
2023-04-16T00:15:57.320Z,6.40
2023-04-16T00:18:24.415Z,6.40
2023-04-16T00:20:52.325Z,6.40
2023-04-16T00:23:19.931Z,6.40
2023-04-16T00:25:47.205Z,6.40
2023-04-16T00:28:14.196Z,6.40
2023-04-16T00:30:41.382Z,6.40
2023-04-16T00:33:08.436Z,6.40
2023-04-16T00:35:35.670Z,6.40
2023-04-16T00:38:02.797Z,6.40
2023-04-16T00:40:30.717Z,6.40
2023-04-16T00:42:57.787Z,6.40
2023-04-16T00:45:24.874Z,6.40
2023-04-16T00:47:52.086Z,6.40
2023-04-16T00:50:19.215Z,6.40
2023-04-16T00:52:48.756Z,6.40
2023-04-16T00:55:17.818Z,6.40
2023-04-16T00:57:46.041Z,6.40
2023-04-16T01:00:13.623Z,6.40
2023-04-16T01:02:40.855Z,6.30
2023-04-16T01:05:08.281Z,6.40
2023-04-16T01:07:35.388Z,6.40
2023-04-16T01:10:03.581Z,6.40
2023-04-16T01:12:30.849Z,6.40
2023-04-16T01:14:58.048Z,6.40
2023-04-16T01:17:25.172Z,6.40
2023-04-16T01:19:52.238Z,6.40
2023-04-16T01:22:19.753Z,6.40
2023-04-16T01:24:46.733Z,6.40
2023-04-16T01:27:13.780Z,6.40
2023-04-16T01:29:41.016Z,6.40
2023-04-16T01:32:08.052Z,6.40
2023-04-16T01:34:35.068Z,6.40
2023-04-16T01:37:03.457Z,6.40
2023-04-16T01:39:30.618Z,6.40
2023-04-16T01:41:57.685Z,6.40
2023-04-16T01:44:25.649Z,6.40
2023-04-16T01:46:52.837Z,6.40
2023-04-16T01:49:19.956Z,6.40
2023-04-16T01:51:47.122Z,6.40
2023-04-16T01:54:14.255Z,6.40
2023-04-16T01:56:41.283Z,6.40
2023-04-16T01:59:08.610Z,6.40
2023-04-16T02:01:35.956Z,6.40
2023-04-16T02:04:03.063Z,6.40
2023-04-16T02:06:30.796Z,6.40
2023-04-16T02:08:57.912Z,6.40
2023-04-16T02:11:24.974Z,6.40
2023-04-16T02:13:52.026Z,6.40
2023-04-16T02:16:19.131Z,6.40
2023-04-16T02:18:46.160Z,6.40
2023-04-16T02:21:14.129Z,6.40
2023-04-16T02:23:41.553Z,6.40
2023-04-16T02:26:08.580Z,6.40
2023-04-16T02:28:35.589Z,6.40
2023-04-16T02:31:02.642Z,6.40
2023-04-16T02:33:29.749Z,6.40
2023-04-16T02:35:56.824Z,6.40
2023-04-16T02:38:23.890Z,6.40
2023-04-16T02:40:51.008Z,6.40
2023-04-16T02:43:18.041Z,6.40
2023-04-16T02:45:45.469Z,6.40
2023-04-16T02:48:12.572Z,6.40
2023-04-16T02:50:39.645Z,6.40
2023-04-16T02:53:07.981Z,6.40
2023-04-16T02:55:35.041Z,6.40
2023-04-16T02:58:02.183Z,6.40
2023-04-16T03:00:29.188Z,6.40
2023-04-16T03:02:56.483Z,6.40
2023-04-16T03:05:23.585Z,6.40
2023-04-16T03:07:56.681Z,6.40
2023-04-16T03:10:27.043Z,6.40
2023-04-16T03:12:54.126Z,6.50
2023-04-16T03:15:21.256Z,6.40
2023-04-16T03:17:48.313Z,6.40
2023-04-16T03:20:17.180Z,6.40
2023-04-16T03:22:44.238Z,6.40
2023-04-16T03:25:11.358Z,6.40
2023-04-16T03:27:39.912Z,6.40
2023-04-16T03:30:12.549Z,6.40
2023-04-16T03:32:40.268Z,6.40
2023-04-16T03:35:08.058Z,6.40
2023-04-16T03:37:35.686Z,6.40
2023-04-16T03:40:03.721Z,6.50
2023-04-16T03:42:30.709Z,6.40
2023-04-16T03:44:57.828Z,6.40
2023-04-16T03:47:24.900Z,6.40
2023-04-16T03:49:51.999Z,6.40
2023-04-16T03:52:18.983Z,6.40
2023-04-16T03:54:46.010Z,6.50
2023-04-16T03:57:13.161Z,6.50
2023-04-16T03:59:40.192Z,6.50
2023-04-16T04:02:07.247Z,6.50
2023-04-16T04:04:34.489Z,6.50
2023-04-16T04:07:01.641Z,6.50
2023-04-16T04:09:28.674Z,6.50
2023-04-16T04:11:55.728Z,6.50
2023-04-16T04:14:22.843Z,6.50
2023-04-16T04:16:49.974Z,6.50
2023-04-16T04:19:17.047Z,6.50
2023-04-16T04:21:44.120Z,6.50
2023-04-16T04:24:11.156Z,6.50
2023-04-16T04:26:38.253Z,6.50
2023-04-16T04:29:05.879Z,6.50
2023-04-16T04:31:32.959Z,6.50
2023-04-16T04:34:00.037Z,6.50
2023-04-16T04:36:27.581Z,6.50
2023-04-16T04:38:54.699Z,6.50
2023-04-16T04:41:21.938Z,6.50
2023-04-16T04:43:49.096Z,6.50
2023-04-16T04:46:16.387Z,6.50
2023-04-16T04:48:43.400Z,6.60
2023-04-16T04:51:10.692Z,6.50
2023-04-16T04:53:37.756Z,6.50
2023-04-16T04:56:11.802Z,6.60
2023-04-16T04:58:40.759Z,6.50
2023-04-16T05:01:07.782Z,6.50
2023-04-16T05:03:34.903Z,6.50
2023-04-16T05:06:01.967Z,6.60
2023-04-16T05:08:29.032Z,6.50
2023-04-16T05:10:59.141Z,6.60
2023-04-16T05:13:26.362Z,6.60
2023-04-16T05:15:53.387Z,6.60
2023-04-16T05:18:20.483Z,6.60
2023-04-16T05:20:47.500Z,6.60
2023-04-16T05:23:15.800Z,6.60
2023-04-16T05:25:43.125Z,6.60
2023-04-16T05:28:10.907Z,6.60
2023-04-16T05:30:38.020Z,6.60
2023-04-16T05:33:05.082Z,6.70
2023-04-16T05:35:32.147Z,6.70
2023-04-16T05:37:59.197Z,6.70
2023-04-16T05:40:26.560Z,6.70
2023-04-16T05:42:53.805Z,6.70
2023-04-16T05:45:21.294Z,6.70
2023-04-16T05:47:48.602Z,6.70
2023-04-16T05:50:16.276Z,6.80
2023-04-16T05:52:43.631Z,6.70
2023-04-16T05:55:11.162Z,6.70
2023-04-16T05:57:38.414Z,6.70
2023-04-16T06:00:06.305Z,6.70
2023-04-16T06:02:34.162Z,6.70
2023-04-16T06:05:01.733Z,6.70
2023-04-16T06:07:29.204Z,6.80
2023-04-16T06:09:56.633Z,6.80
2023-04-16T06:12:23.903Z,6.70
2023-04-16T06:14:51.290Z,6.80
2023-04-16T06:17:19.650Z,6.80
2023-04-16T06:19:46.900Z,6.80
2023-04-16T06:22:14.425Z,6.80
2023-04-16T06:24:42.138Z,6.80
2023-04-16T06:27:09.413Z,6.80
2023-04-16T06:29:41.108Z,6.80
2023-04-16T06:32:09.451Z,6.90
2023-04-16T06:34:38.054Z,6.90
2023-04-16T06:37:05.600Z,6.90
2023-04-16T06:39:33.765Z,6.90
2023-04-16T06:42:01.699Z,6.90
2023-04-16T06:44:29.095Z,6.90
2023-04-16T06:46:56.401Z,6.90
2023-04-16T06:49:23.707Z,7.00
2023-04-16T06:51:51.166Z,6.90
2023-04-16T06:54:20.052Z,7.00
2023-04-16T06:56:47.352Z,7.00
2023-04-16T06:59:14.582Z,7.00
2023-04-16T07:01:41.956Z,7.00
2023-04-16T07:04:10.225Z,7.00
2023-04-16T07:06:37.547Z,7.00
2023-04-16T07:09:05.052Z,7.00
2023-04-16T07:11:35.938Z,7.00
2023-04-16T07:14:03.973Z,7.00
2023-04-16T07:16:31.381Z,7.00
2023-04-16T07:18:58.670Z,7.10
2023-04-16T07:21:26.555Z,7.10
2023-04-16T07:23:54.207Z,7.10
2023-04-16T07:26:21.534Z,7.10
2023-04-16T07:28:48.682Z,7.10
2023-04-16T07:31:19.115Z,7.10
2023-04-16T07:33:46.419Z,7.10
2023-04-16T07:36:14.382Z,7.10
2023-04-16T07:38:41.842Z,7.10
2023-04-16T07:41:09.109Z,7.20
2023-04-16T07:43:36.489Z,7.20
2023-04-16T07:46:04.031Z,7.10
2023-04-16T07:48:31.449Z,7.10
2023-04-16T07:50:58.886Z,7.10
2023-04-16T07:53:26.578Z,7.10
2023-04-16T07:55:55.257Z,7.10
2023-04-16T07:58:22.548Z,7.10
2023-04-16T08:00:51.046Z,7.10
2023-04-16T08:03:18.782Z,7.10
2023-04-16T08:05:46.300Z,7.20
2023-04-16T08:08:13.642Z,7.20
2023-04-16T08:10:40.988Z,7.10
2023-04-16T08:13:08.231Z,7.20
2023-04-16T08:15:35.578Z,7.20
2023-04-16T08:18:02.908Z,7.30
2023-04-16T08:20:30.254Z,7.30
2023-04-16T08:22:57.528Z,7.30
2023-04-16T08:25:25.054Z,7.40
2023-04-16T08:27:52.233Z,7.40
2023-04-16T08:30:19.546Z,7.40
2023-04-16T08:32:49.915Z,7.40
2023-04-16T08:35:17.621Z,7.40
2023-04-16T08:37:44.882Z,7.40
2023-04-16T08:40:12.495Z,7.40
2023-04-16T08:43:00.687Z,7.40
2023-04-16T08:45:28.289Z,7.40
2023-04-16T08:47:55.662Z,7.50
2023-04-16T08:50:28.761Z,7.50
2023-04-16T08:53:06.821Z,7.50
2023-04-16T08:55:39.815Z,7.50
2023-04-16T08:58:18.777Z,7.60
2023-04-16T09:00:46.896Z,7.70
2023-04-16T09:03:14.358Z,7.80
2023-04-16T09:05:43.228Z,7.90
2023-04-16T09:08:10.673Z,8.10
2023-04-16T09:10:38.090Z,8.20
2023-04-16T09:13:05.479Z,8.30
2023-04-16T09:15:35.203Z,8.30
2023-04-16T09:18:02.609Z,8.30
2023-04-16T09:20:29.986Z,8.40
2023-04-16T09:22:57.580Z,8.30
2023-04-16T09:25:26.653Z,8.40
2023-04-16T09:27:56.340Z,8.50
2023-04-16T09:30:26.504Z,8.50
2023-04-16T09:33:23.019Z,8.60
2023-04-16T09:35:52.867Z,8.60
2023-04-16T09:38:21.376Z,8.70
2023-04-16T09:40:48.830Z,8.60
2023-04-16T09:43:19.369Z,8.60
2023-04-16T09:45:54.583Z,8.60
2023-04-16T09:48:32.787Z,8.70
2023-04-16T09:51:01.230Z,8.70
2023-04-16T09:53:31.001Z,8.80
2023-04-16T09:55:59.688Z,8.90
2023-04-16T09:58:27.300Z,9.00
2023-04-16T10:01:01.946Z,9.00
2023-04-16T10:03:37.071Z,9.10
2023-04-16T10:06:08.484Z,9.10
2023-04-16T10:08:36.587Z,9.10
2023-04-16T10:11:03.969Z,9.20
2023-04-16T10:13:32.352Z,9.40
2023-04-16T10:16:00.329Z,9.50
2023-04-16T10:18:29.354Z,9.50
2023-04-16T10:20:57.748Z,9.50
2023-04-16T10:23:24.974Z,9.60
2023-04-16T10:25:56.433Z,9.50
2023-04-16T10:28:29.384Z,9.60
2023-04-16T10:30:58.788Z,9.70
2023-04-16T10:33:35.005Z,9.90
2023-04-16T10:36:12.802Z,10.10
2023-04-16T10:38:42.256Z,10.00
2023-04-16T10:41:10.156Z,10.00
2023-04-16T10:43:41.772Z,9.80
2023-04-16T10:46:24.972Z,9.70
2023-04-16T10:48:55.177Z,9.60
2023-04-16T10:51:33.850Z,9.60
2023-04-16T10:54:11.468Z,9.70
2023-04-16T10:56:38.936Z,9.70
2023-04-16T10:59:07.845Z,9.80
2023-04-16T11:01:41.122Z,9.90
2023-04-16T11:04:20.471Z,10.00
2023-04-16T11:07:07.452Z,10.10
2023-04-16T11:10:00.221Z,10.10
2023-04-16T11:12:36.070Z,9.90
2023-04-16T11:15:05.080Z,9.80
2023-04-16T11:17:52.229Z,9.90
2023-04-16T11:20:20.040Z,9.90
2023-04-16T11:22:51.801Z,9.80
2023-04-16T11:25:30.319Z,9.90
2023-04-16T11:27:59.333Z,10.00
2023-04-16T11:30:31.758Z,10.00
2023-04-16T11:32:58.956Z,10.20
2023-04-16T11:35:26.303Z,10.40
2023-04-16T11:37:57.225Z,10.60
2023-04-16T11:40:25.530Z,10.90
2023-04-16T11:42:52.640Z,11.10
2023-04-16T11:45:19.690Z,11.10
2023-04-16T11:47:56.933Z,11.20
2023-04-16T11:50:28.352Z,11.20
2023-04-16T11:52:57.710Z,11.20
2023-04-16T11:55:25.015Z,11.40
2023-04-16T11:57:52.714Z,11.60
2023-04-16T12:00:23.110Z,11.60
2023-04-16T12:02:53.870Z,11.70
2023-04-16T12:05:39.502Z,11.60
2023-04-16T12:08:09.060Z,11.60
2023-04-16T12:10:38.348Z,11.80
2023-04-16T12:13:17.966Z,11.80
2023-04-16T12:15:48.850Z,11.70
2023-04-16T12:18:17.188Z,11.50
2023-04-16T12:20:45.088Z,11.30
2023-04-16T12:23:26.371Z,11.10
2023-04-16T12:26:10.888Z,11.00
2023-04-16T12:28:38.810Z,11.20
2023-04-16T12:31:06.557Z,11.60
2023-04-16T12:33:33.749Z,11.80
2023-04-16T12:36:02.339Z,11.90
2023-04-16T12:38:30.060Z,12.00
2023-04-16T12:40:58.483Z,12.00
2023-04-16T12:43:26.097Z,12.00
2023-04-16T12:45:53.276Z,12.10
2023-04-16T12:48:20.480Z,12.20
2023-04-16T12:50:47.712Z,12.30
2023-04-16T12:53:14.837Z,12.40
2023-04-16T12:55:42.120Z,12.60
2023-04-16T12:58:11.901Z,12.60
2023-04-16T13:00:40.045Z,12.60
2023-04-16T13:03:07.308Z,12.50
2023-04-16T13:05:34.632Z,12.50
2023-04-16T13:08:01.707Z,12.50
2023-04-16T13:10:28.811Z,12.40
2023-04-16T13:12:56.158Z,12.40
2023-04-16T13:15:23.183Z,12.30
2023-04-16T13:17:50.281Z,12.00
2023-04-16T13:20:17.453Z,12.10
2023-04-16T13:22:44.500Z,12.10
2023-04-16T13:25:11.771Z,12.10
2023-04-16T13:27:38.800Z,12.20
2023-04-16T13:30:06.745Z,12.30
2023-04-16T13:32:33.859Z,12.30
2023-04-16T13:35:01.024Z,12.10
2023-04-16T13:37:28.068Z,12.10
2023-04-16T13:39:55.229Z,12.00
2023-04-16T13:42:22.308Z,12.10
2023-04-16T13:44:53.183Z,12.30
2023-04-16T13:47:20.359Z,12.30
2023-04-16T13:49:47.785Z,12.00
2023-04-16T13:52:14.800Z,12.00
2023-04-16T13:54:42.077Z,12.10
2023-04-16T13:57:12.785Z,12.20
2023-04-16T13:59:39.940Z,12.10
2023-04-16T14:02:07.256Z,12.20
2023-04-16T14:04:34.344Z,12.20
2023-04-16T14:07:01.419Z,12.20
2023-04-16T14:09:28.486Z,12.10
2023-04-16T14:11:56.010Z,12.00
2023-04-16T14:14:23.048Z,12.10
2023-04-16T14:16:50.209Z,12.20
2023-04-16T14:19:17.385Z,12.20
2023-04-16T14:21:44.461Z,12.00
2023-04-16T14:24:12.737Z,12.00
2023-04-16T14:26:39.841Z,11.90
2023-04-16T14:29:07.018Z,11.90
2023-04-16T14:31:34.093Z,12.10
2023-04-16T14:34:01.478Z,12.20
2023-04-16T14:36:28.697Z,12.20
2023-04-16T14:38:55.873Z,12.20
2023-04-16T14:41:22.892Z,12.20
2023-04-16T14:43:49.966Z,12.10
2023-04-16T14:46:19.971Z,12.00
2023-04-16T14:48:47.080Z,11.90
2023-04-16T14:51:14.284Z,11.90
2023-04-16T14:53:41.587Z,11.80
2023-04-16T14:56:08.650Z,11.70
2023-04-16T14:58:37.922Z,11.70
2023-04-16T15:01:06.366Z,11.80
2023-04-16T15:03:33.679Z,11.80
2023-04-16T15:06:01.680Z,12.00
2023-04-16T15:08:28.788Z,12.10
2023-04-16T15:10:55.837Z,12.00
2023-04-16T15:13:22.887Z,12.00
2023-04-16T15:15:50.143Z,11.90
2023-04-16T15:18:17.449Z,11.80
2023-04-16T15:20:44.551Z,11.90
2023-04-16T15:23:11.725Z,11.80
2023-04-16T15:25:38.758Z,11.70
2023-04-16T15:28:06.660Z,11.60
2023-04-16T15:30:33.897Z,11.60
2023-04-16T15:33:01.228Z,11.50
2023-04-16T15:35:28.473Z,11.50
2023-04-16T15:37:55.518Z,11.50
2023-04-16T15:40:22.744Z,11.50
2023-04-16T15:42:49.913Z,11.60
2023-04-16T15:45:17.175Z,11.60
2023-04-16T15:47:51.300Z,11.60
2023-04-16T15:50:19.379Z,11.60
2023-04-16T15:52:47.197Z,11.70
2023-04-16T15:55:15.637Z,11.70
2023-04-16T15:57:42.679Z,11.70
2023-04-16T16:00:21.334Z,11.70
2023-04-16T16:02:48.484Z,11.80
2023-04-16T16:05:17.012Z,11.70
2023-04-16T16:07:44.905Z,11.70
2023-04-16T16:10:15.086Z,11.60
2023-04-16T16:12:42.275Z,11.60
2023-04-16T16:15:11.266Z,11.50
2023-04-16T16:17:39.156Z,11.50
2023-04-16T16:20:09.591Z,11.50
2023-04-16T16:22:38.403Z,11.40
2023-04-16T16:25:06.452Z,11.40
2023-04-16T16:27:33.446Z,11.30
2023-04-16T16:30:01.046Z,11.30
2023-04-16T16:32:28.164Z,11.20
2023-04-16T16:34:56.163Z,11.20
2023-04-16T16:37:23.229Z,11.10
2023-04-16T16:39:50.286Z,11.10
2023-04-16T16:42:19.050Z,11.10
2023-04-16T16:44:49.555Z,11.10
2023-04-16T16:47:16.679Z,11.00
2023-04-16T16:49:44.438Z,11.00
2023-04-16T16:52:11.611Z,10.90
2023-04-16T16:54:38.613Z,10.80
2023-04-16T16:57:05.863Z,10.70
2023-04-16T16:59:32.981Z,10.60
2023-04-16T17:02:00.044Z,10.50
2023-04-16T17:04:27.148Z,10.50
2023-04-16T17:06:54.284Z,10.40
2023-04-16T17:09:21.624Z,10.40
2023-04-16T17:11:48.643Z,10.30
2023-04-16T17:14:15.765Z,10.30
2023-04-16T17:16:43.854Z,10.20
2023-04-16T17:19:12.407Z,10.10
2023-04-16T17:21:39.543Z,10.20
2023-04-16T17:24:06.668Z,10.10
2023-04-16T17:26:33.695Z,10.10
2023-04-16T17:29:00.873Z,10.10
2023-04-16T17:31:28.424Z,10.00
2023-04-16T17:33:55.535Z,10.00
2023-04-16T17:36:23.341Z,9.90
2023-04-16T17:38:50.813Z,9.90
2023-04-16T17:41:17.987Z,9.80
2023-04-16T17:43:48.919Z,9.80
2023-04-16T17:46:16.196Z,9.80
2023-04-16T17:48:48.982Z,9.80
2023-04-16T17:51:19.004Z,9.70
2023-04-16T17:53:46.055Z,9.60
2023-04-16T17:56:14.114Z,9.60
2023-04-16T17:58:41.248Z,9.60
2023-04-16T18:01:08.464Z,9.60
2023-04-16T18:03:37.361Z,9.60
2023-04-16T18:06:05.609Z,9.60
2023-04-16T18:08:33.894Z,9.60
2023-04-16T18:11:03.381Z,9.60
2023-04-16T18:13:30.596Z,9.60
2023-04-16T18:15:57.685Z,9.50
2023-04-16T18:18:24.716Z,9.40
2023-04-16T18:20:52.725Z,9.40
2023-04-16T18:23:19.811Z,9.30
2023-04-16T18:25:48.793Z,9.30
2023-04-16T18:28:17.893Z,9.20
2023-04-16T18:30:45.313Z,9.20
2023-04-16T18:33:42.757Z,9.20
2023-04-16T18:36:06.315Z,9.20
2023-04-16T18:38:33.528Z,9.20
2023-04-16T18:41:02.190Z,9.20
2023-04-16T18:43:29.514Z,9.20
2023-04-16T18:45:56.714Z,9.20
2023-04-16T18:48:23.832Z,9.20
2023-04-16T18:50:51.217Z,9.20
2023-04-16T18:53:20.790Z,9.20
2023-04-16T18:55:52.848Z,9.20
2023-04-16T18:58:22.653Z,9.30
2023-04-16T19:00:59.035Z,9.30
2023-04-16T19:03:29.664Z,9.30
2023-04-16T19:06:00.268Z,9.30
2023-04-16T19:08:27.457Z,9.30
2023-04-16T19:10:59.138Z,9.40
2023-04-16T19:13:26.400Z,9.30
2023-04-16T19:16:02.989Z,9.40
2023-04-16T19:18:32.729Z,9.30
2023-04-16T19:21:01.847Z,9.40
2023-04-16T19:23:34.504Z,9.30
2023-04-16T19:26:04.756Z,9.40
2023-04-16T19:28:31.998Z,9.30
2023-04-16T19:30:58.991Z,9.40
2023-04-16T19:33:28.679Z,9.30
2023-04-16T19:35:56.255Z,9.30
2023-04-16T19:38:23.905Z,9.30
2023-04-16T19:40:51.350Z,9.30
2023-04-16T19:43:18.618Z,9.30
2023-04-16T19:45:47.818Z,9.30
2023-04-16T19:48:17.519Z,9.30
2023-04-16T19:50:47.271Z,9.30
2023-04-16T19:53:16.172Z,9.40
2023-04-16T19:55:43.255Z,9.30
2023-04-16T19:58:12.100Z,9.30
2023-04-16T20:00:43.748Z,9.40
2023-04-16T20:03:12.810Z,9.40
2023-04-16T20:05:40.054Z,9.40
2023-04-16T20:08:07.209Z,9.40
2023-04-16T20:10:34.533Z,9.40
2023-04-16T20:13:01.756Z,9.40
2023-04-16T20:15:29.157Z,9.40
2023-04-16T20:17:56.491Z,9.40
2023-04-16T20:20:23.951Z,9.40
2023-04-16T20:22:51.400Z,9.40
2023-04-16T20:25:19.535Z,9.40
2023-04-16T20:27:46.845Z,9.30
2023-04-16T20:30:14.443Z,9.30
2023-04-16T20:32:41.529Z,9.30
2023-04-16T20:35:11.359Z,9.30
2023-04-16T20:37:38.850Z,9.30
2023-04-16T20:40:09.666Z,9.30
2023-04-16T20:42:36.748Z,9.30
2023-04-16T20:45:03.965Z,9.30
2023-04-16T20:47:30.967Z,9.30
2023-04-16T20:49:58.378Z,9.30
2023-04-16T20:52:26.048Z,9.30
2023-04-16T20:54:53.207Z,9.30
2023-04-16T20:57:20.341Z,9.30
2023-04-16T20:59:48.400Z,9.30
2023-04-16T21:02:15.608Z,9.30
2023-04-16T21:04:43.009Z,9.30
2023-04-16T21:07:10.233Z,9.30
2023-04-16T21:09:37.357Z,9.30
2023-04-16T21:12:04.628Z,9.30
2023-04-16T21:14:31.697Z,9.30
2023-04-16T21:16:58.783Z,9.30
2023-04-16T21:19:25.923Z,9.30
2023-04-16T21:21:52.961Z,9.30
2023-04-16T21:24:20.094Z,9.30
2023-04-16T21:26:47.121Z,9.30
2023-04-16T21:29:14.262Z,9.30
2023-04-16T21:31:43.825Z,9.30
2023-04-16T21:34:10.885Z,9.30
2023-04-16T21:36:37.958Z,9.30
2023-04-16T21:39:05.054Z,9.30
2023-04-16T21:41:32.119Z,9.30
2023-04-16T21:43:59.138Z,9.30
2023-04-16T21:46:26.873Z,9.30
2023-04-16T21:48:54.006Z,9.20
2023-04-16T21:51:29.221Z,9.20
2023-04-16T21:53:57.247Z,9.20
2023-04-16T21:56:27.294Z,9.10
2023-04-16T21:58:54.360Z,9.00
2023-04-16T22:01:22.134Z,8.90
2023-04-16T22:03:52.252Z,8.90
2023-04-16T22:06:20.675Z,8.90
2023-04-16T22:08:49.992Z,8.90
2023-04-16T22:11:17.251Z,8.90
2023-04-16T22:13:46.455Z,8.80
2023-04-16T22:16:13.634Z,8.70
2023-04-16T22:18:41.294Z,8.60
2023-04-16T22:21:08.404Z,8.60
2023-04-16T22:23:35.703Z,8.60
2023-04-16T22:26:03.074Z,8.50
2023-04-16T22:28:30.361Z,8.50
2023-04-16T22:30:57.570Z,8.50
2023-04-16T22:33:24.733Z,8.50
2023-04-16T22:35:51.891Z,8.50
2023-04-16T22:38:18.911Z,8.50
2023-04-16T22:40:49.009Z,8.50
2023-04-16T22:43:17.704Z,8.50
2023-04-16T22:45:46.549Z,8.40
2023-04-16T22:48:13.657Z,8.40
2023-04-16T22:50:45.983Z,8.40
2023-04-16T22:53:13.117Z,8.40
2023-04-16T22:55:40.176Z,8.40
2023-04-16T22:58:07.180Z,8.40
2023-04-16T23:00:34.393Z,8.40
2023-04-16T23:03:01.656Z,8.40
2023-04-16T23:05:28.924Z,8.40
2023-04-16T23:07:56.131Z,8.40
2023-04-16T23:10:23.271Z,8.40
2023-04-16T23:12:50.604Z,8.40
2023-04-16T23:15:17.784Z,8.30
2023-04-16T23:17:45.690Z,8.30
2023-04-16T23:20:14.804Z,8.30
2023-04-16T23:22:42.097Z,8.30
2023-04-16T23:25:09.736Z,8.30
2023-04-16T23:27:37.175Z,8.30
2023-04-16T23:30:05.478Z,8.30
2023-04-16T23:32:34.285Z,8.30
2023-04-16T23:35:01.582Z,8.30
2023-04-16T23:37:28.753Z,8.30
2023-04-16T23:39:55.862Z,8.30
2023-04-16T23:42:22.908Z,8.30
2023-04-16T23:44:49.972Z,8.30
2023-04-16T23:47:17.002Z,8.30
2023-04-16T23:49:44.027Z,8.20
2023-04-16T23:52:11.090Z,8.20
2023-04-16T23:54:38.135Z,8.20
2023-04-16T23:57:05.352Z,8.20
2023-04-16T23:59:32.417Z,8.20
